Time;durP1;ratioP1;P1;durP2;ratioP2;P2;SDS_P1;SDS_P2;PMS_P1;PMS_P2;Temp;Humidity;BMP_temperature;BMP_pressure;BME280_temperature;BME280_humidity;BME280_pressure;Samples;Min_cycle;Max_cycle;Signal;HPM_P1;HPM_P2
2023/11/07 00:00:27;;;;;;;7.30;2.67;;;7.90;99.90;;;;;;4997524;28;20049;-72
2023/11/07 00:02:53;;;;;;;5.20;2.25;;;7.90;99.90;;;;;;4998126;28;20049;-72
2023/11/07 00:05:20;;;;;;;8.40;2.65;;;7.90;99.90;;;;;;4997571;28;20480;-71
2023/11/07 00:07:47;;;;;;;7.88;2.83;;;7.90;99.90;;;;;;4981226;28;20421;-71
2023/11/07 00:10:13;;;;;;;9.52;2.15;;;8.00;99.90;;;;;;4980853;28;20595;-72
2023/11/07 00:12:40;;;;;;;7.60;2.38;;;7.90;99.90;;;;;;4997997;28;20034;-72
2023/11/07 00:15:07;;;;;;;6.18;2.10;;;7.90;99.90;;;;;;4997593;28;20034;-72
2023/11/07 00:17:34;;;;;;;6.82;2.65;;;7.90;99.90;;;;;;5000350;28;20029;-71
2023/11/07 00:20:00;;;;;;;5.20;1.60;;;7.90;99.90;;;;;;4997661;28;20045;-72
2023/11/07 00:22:26;;;;;;;6.70;2.05;;;7.90;99.90;;;;;;4997441;28;20034;-71
2023/11/07 00:24:53;;;;;;;6.88;1.88;;;7.80;99.90;;;;;;4996765;28;20029;-72
2023/11/07 00:27:19;;;;;;;5.18;1.58;;;7.80;99.90;;;;;;4981670;28;20041;-72
2023/11/07 00:29:46;;;;;;;9.55;2.65;;;7.80;99.90;;;;;;5012465;28;20057;-71
2023/11/07 00:32:14;;;;;;;5.25;1.67;;;7.80;99.90;;;;;;4997792;28;20034;-72
2023/11/07 00:34:40;;;;;;;7.57;1.80;;;7.80;99.90;;;;;;4982801;28;20508;-72
2023/11/07 00:37:06;;;;;;;5.03;1.67;;;7.80;99.90;;;;;;4981151;28;20034;-71
2023/11/07 00:39:33;;;;;;;7.22;2.63;;;7.80;99.90;;;;;;4998354;28;20026;-72
2023/11/07 00:41:59;;;;;;;7.13;2.78;;;7.80;99.90;;;;;;4980218;28;20038;-72
2023/11/07 00:44:25;;;;;;;5.35;1.90;;;7.90;99.90;;;;;;4996328;28;20641;-72
2023/11/07 00:46:52;;;;;;;8.00;2.10;;;8.00;99.90;;;;;;4996655;28;20045;-71
2023/11/07 00:49:19;;;;;;;5.43;1.77;;;8.00;99.90;;;;;;4996114;28;20517;-72
2023/11/07 00:51:47;;;;;;;8.52;2.72;;;8.10;99.90;;;;;;4981280;28;20582;-72
2023/11/07 00:54:14;;;;;;;4.65;1.90;;;8.10;99.90;;;;;;4997517;28;20044;-72
2023/11/07 00:56:41;;;;;;;6.72;2.70;;;8.10;99.90;;;;;;4994542;28;20040;-71
2023/11/07 00:59:07;;;;;;;7.47;2.58;;;8.10;99.90;;;;;;4979875;28;20293;-72
2023/11/07 01:01:34;;;;;;;7.72;2.17;;;8.00;99.90;;;;;;4997102;28;20488;-72
2023/11/07 01:04:00;;;;;;;9.48;2.42;;;8.00;99.90;;;;;;4995740;28;20046;-72
2023/11/07 01:06:26;;;;;;;4.63;1.60;;;7.90;99.90;;;;;;4996383;28;20061;-71
2023/11/07 01:08:52;;;;;;;5.90;2.08;;;7.90;99.90;;;;;;4996079;28;20030;-71
2023/11/07 01:11:19;;;;;;;5.32;2.00;;;7.90;99.90;;;;;;4997513;28;20492;-71
2023/11/07 01:13:45;;;;;;;8.25;2.22;;;7.90;99.90;;;;;;4996152;28;20121;-72
2023/11/07 01:16:12;;;;;;;7.07;2.30;;;7.90;99.90;;;;;;4997685;28;20393;-72
2023/11/07 01:18:39;;;;;;;6.25;1.70;;;7.90;99.90;;;;;;4966876;28;20038;-70
2023/11/07 01:21:05;;;;;;;8.35;2.25;;;7.90;99.90;;;;;;4997266;28;20037;-71
2023/11/07 01:23:32;;;;;;;10.13;3.40;;;7.90;99.90;;;;;;4979767;28;20041;-71
2023/11/07 01:26:02;;;;;;;5.50;2.15;;;7.90;99.90;;;;;;4964050;28;20034;-72
2023/11/07 01:28:29;;;;;;;4.78;1.42;;;7.90;99.90;;;;;;4995566;28;20401;-72
2023/11/07 01:30:56;;;;;;;10.55;2.88;;;7.90;99.90;;;;;;5029019;28;20037;-72
2023/11/07 01:33:22;;;;;;;4.78;1.77;;;7.90;99.90;;;;;;4995723;28;20033;-72
2023/11/07 01:35:48;;;;;;;6.85;1.75;;;7.80;99.90;;;;;;4979733;28;20060;-71
2023/11/07 01:38:15;;;;;;;8.20;2.00;;;7.80;99.90;;;;;;4995534;28;20046;-72
2023/11/07 01:40:41;;;;;;;5.55;1.55;;;7.80;99.90;;;;;;4995471;28;20030;-72
2023/11/07 01:43:12;;;;;;;4.28;1.48;;;7.80;99.90;;;;;;4994813;28;20030;-70
2023/11/07 01:45:39;;;;;;;4.63;1.60;;;7.80;99.90;;;;;;5027809;28;20038;-71
2023/11/07 01:48:08;;;;;;;5.20;1.40;;;7.70;99.90;;;;;;5009485;28;20646;-71
2023/11/07 01:50:36;;;;;;;3.45;1.42;;;7.70;99.90;;;;;;4977891;28;20041;-72
2023/11/07 01:53:04;;;;;;;5.47;1.48;;;7.70;99.90;;;;;;5025726;28;20044;-72
2023/11/07 01:55:32;;;;;;;5.95;1.63;;;7.70;99.90;;;;;;4995015;28;20052;-72
2023/11/07 01:58:03;;;;;;;5.65;2.22;;;7.70;99.90;;;;;;5007990;28;20046;-71
2023/11/07 02:00:30;;;;;;;7.95;2.40;;;7.70;99.90;;;;;;4994828;28;20698;-71
2023/11/07 02:02:59;;;;;;;5.78;1.60;;;7.80;99.90;;;;;;5010355;28;20049;-72
2023/11/07 02:05:26;;;;;;;4.95;1.55;;;7.70;99.90;;;;;;5026303;28;20041;-71
2023/11/07 02:07:52;;;;;;;6.97;1.75;;;7.80;99.90;;;;;;4980434;28;20025;-72
2023/11/07 02:10:21;;;;;;;7.57;1.85;;;7.80;99.90;;;;;;4977900;28;20238;-72
2023/11/07 02:12:48;;;;;;;6.38;1.80;;;7.80;99.90;;;;;;5021249;28;20033;-73
2023/11/07 02:15:31;;;;;;;7.05;1.92;;;7.80;99.90;;;;;;4994662;28;20038;-72
2023/11/07 02:17:57;;;;;;;;;;;7.80;99.90;;;;;;4980055;28;20388;-72
2023/11/07 02:20:24;;;;;;;6.57;1.58;;;7.80;99.90;;;;;;4996651;28;20288;-72
2023/11/07 02:23:01;;;;;;;4.38;1.67;;;7.70;99.90;;;;;;4978419;28;20045;-71
2023/11/07 02:25:27;;;;;;;6.05;1.45;;;7.70;99.90;;;;;;5012074;28;20048;-71
2023/11/07 02:27:54;;;;;;;8.35;1.58;;;7.70;99.90;;;;;;4978264;28;20064;-71
2023/11/07 02:30:20;;;;;;;4.50;1.60;;;7.70;99.90;;;;;;4978876;28;20045;-72
2023/11/07 02:32:46;;;;;;;6.20;1.48;;;7.70;99.90;;;;;;4978751;28;20037;-72
2023/11/07 02:35:12;;;;;;;7.50;2.10;;;7.70;99.90;;;;;;4978660;28;20042;-72
2023/11/07 02:37:40;;;;;;;5.03;1.40;;;7.80;99.90;;;;;;4978445;28;20048;-71
2023/11/07 02:40:10;;;;;;;6.60;1.77;;;7.80;99.90;;;;;;4979058;28;20041;-72
2023/11/07 02:42:37;;;;;;;4.93;1.33;;;7.80;99.90;;;;;;4990694;28;20152;-73
2023/11/07 02:45:04;;;;;;;5.03;1.40;;;7.80;99.90;;;;;;4995828;28;20038;-72
2023/11/07 02:47:30;;;;;;;5.25;1.50;;;7.80;99.90;;;;;;4994675;28;20392;-72
2023/11/07 02:49:57;;;;;;;6.63;1.50;;;7.80;99.90;;;;;;4977294;28;20389;-72
2023/11/07 02:52:24;;;;;;;6.80;1.48;;;7.80;99.90;;;;;;4979841;28;22443;-72
2023/11/07 02:54:51;;;;;;;6.07;2.17;;;7.80;99.90;;;;;;4965971;28;20039;-72
2023/11/07 02:57:17;;;;;;;5.88;1.67;;;7.80;99.90;;;;;;4983979;28;20527;-73
2023/11/07 02:59:45;;;;;;;7.97;1.77;;;7.80;99.90;;;;;;4982463;28;20397;-71
2023/11/07 03:02:12;;;;;;;4.53;1.42;;;7.80;99.90;;;;;;5000283;28;20034;-72
2023/11/07 03:04:38;;;;;;;8.98;1.90;;;7.80;99.90;;;;;;4982658;28;20397;-72
2023/11/07 03:07:05;;;;;;;6.57;1.63;;;7.80;99.90;;;;;;4999722;28;20056;-72
2023/11/07 03:09:31;;;;;;;6.45;1.90;;;7.80;99.90;;;;;;4998654;28;20022;-71
2023/11/07 03:11:57;;;;;;;7.00;2.00;;;7.80;99.90;;;;;;4997952;28;20041;-72
2023/11/07 03:14:24;;;;;;;7.93;2.08;;;7.80;99.90;;;;;;4981948;28;20033;-72
2023/11/07 03:16:51;;;;;;;8.50;1.50;;;7.80;99.90;;;;;;5014823;28;20488;-72
2023/11/07 03:19:17;;;;;;;6.88;2.10;;;7.80;99.90;;;;;;4998874;28;20033;-72
2023/11/07 03:21:44;;;;;;;6.43;2.00;;;7.80;99.90;;;;;;4981999;28;20041;-73
2023/11/07 03:24:10;;;;;;;8.15;2.35;;;7.80;99.90;;;;;;4982918;28;20161;-72
2023/11/07 03:26:36;;;;;;;6.00;1.80;;;7.70;99.90;;;;;;4997896;28;20404;-71
2023/11/07 03:29:03;;;;;;;9.52;1.75;;;7.80;99.90;;;;;;4982094;28;20044;-71
2023/11/07 03:31:30;;;;;;;6.07;1.65;;;7.70;99.90;;;;;;4998889;28;20056;-72
2023/11/07 03:33:57;;;;;;;6.40;1.48;;;7.70;99.90;;;;;;4998757;28;20033;-74
2023/11/07 03:36:24;;;;;;;6.70;1.73;;;7.70;99.90;;;;;;4997578;28;20045;-73
2023/11/07 03:38:52;;;;;;;4.80;1.15;;;7.70;99.90;;;;;;4998222;28;20041;-71
2023/11/07 03:41:22;;;;;;;4.93;1.30;;;7.70;99.90;;;;;;4980495;28;20036;-72
2023/11/07 03:43:49;;;;;;;4.75;1.90;;;7.70;99.90;;;;;;4965233;28;20029;-73
2023/11/07 03:46:15;;;;;;;5.15;1.58;;;7.70;99.90;;;;;;4997234;28;20038;-72
2023/11/07 03:48:42;;;;;;;8.32;1.45;;;7.80;99.90;;;;;;4964617;28;20207;-73
2023/11/07 03:51:08;;;;;;;5.47;1.75;;;7.80;99.90;;;;;;5028883;28;20461;-72
2023/11/07 03:53:35;;;;;;;7.07;1.48;;;7.80;99.90;;;;;;4981179;28;20389;-73
2023/11/07 03:56:02;;;;;;;5.97;1.67;;;7.80;99.90;;;;;;4980901;28;20041;-72
2023/11/07 03:58:28;;;;;;;5.30;1.60;;;7.90;99.90;;;;;;5029779;28;20030;-72
2023/11/07 04:00:54;;;;;;;5.80;2.15;;;8.00;99.90;;;;;;4979747;28;20039;-72
2023/11/07 04:03:22;;;;;;;6.65;2.03;;;8.10;99.90;;;;;;4980527;28;20504;-73
2023/11/07 04:05:48;;;;;;;9.52;1.85;;;8.10;99.90;;;;;;4997021;28;20034;-72
2023/11/07 04:08:14;;;;;;;7.68;1.77;;;8.20;99.90;;;;;;4996918;28;20416;-72
2023/11/07 04:10:41;;;;;;;8.93;2.13;;;8.20;99.90;;;;;;4979523;28;20038;-71
2023/11/07 04:13:07;;;;;;;7.72;1.95;;;8.20;99.90;;;;;;4997087;28;20041;-72
2023/11/07 04:15:35;;;;;;;7.60;2.08;;;8.20;99.90;;;;;;4964298;28;20044;-72
2023/11/07 04:18:03;;;;;;;7.35;2.25;;;8.20;99.90;;;;;;4980628;28;20489;-73
2023/11/07 04:20:32;;;;;;;6.43;1.60;;;8.20;99.90;;;;;;4996985;28;20429;-73
2023/11/07 04:22:59;;;;;;;6.03;2.22;;;8.20;99.90;;;;;;5013561;28;20049;-71
2023/11/07 04:25:25;;;;;;;6.97;2.30;;;8.20;99.90;;;;;;4980238;28;20038;-72
2023/11/07 04:27:51;;;;;;;9.25;2.47;;;8.20;99.90;;;;;;4998112;28;20057;-72
2023/11/07 04:30:18;;;;;;;6.45;2.55;;;8.30;99.90;;;;;;4980602;28;20057;-72
2023/11/07 04:32:45;;;;;;;7.78;2.63;;;8.30;99.90;;;;;;4981187;28;20045;-72
2023/11/07 04:35:11;;;;;;;9.23;2.00;;;8.30;99.90;;;;;;5012526;28;20327;-72
2023/11/07 04:37:38;;;;;;;7.35;2.67;;;8.30;99.90;;;;;;4996439;28;20050;-72
2023/11/07 04:40:05;;;;;;;7.70;2.60;;;8.30;99.90;;;;;;4996572;28;20049;-72
2023/11/07 04:42:31;;;;;;;5.93;2.40;;;8.20;99.90;;;;;;4998284;28;20030;-72
2023/11/07 04:44:59;;;;;;;7.68;3.35;;;8.20;99.90;;;;;;4995752;28;20033;-72
2023/11/07 04:47:25;;;;;;;8.10;3.08;;;8.20;99.90;;;;;;4997459;28;20034;-73
2023/11/07 04:49:52;;;;;;;7.35;2.75;;;8.20;99.90;;;;;;4996947;28;20041;-72
2023/11/07 04:52:19;;;;;;;7.50;2.38;;;8.20;99.90;;;;;;4996265;28;20041;-71
2023/11/07 04:54:45;;;;;;;7.45;2.10;;;8.20;99.90;;;;;;4996879;28;20057;-73
2023/11/07 04:57:11;;;;;;;7.90;3.22;;;8.20;99.90;;;;;;4997525;28;20048;-73
2023/11/07 04:59:38;;;;;;;7.28;3.00;;;8.30;99.90;;;;;;4996872;28;20037;-72
2023/11/07 05:02:06;;;;;;;9.18;3.35;;;8.30;99.90;;;;;;4998414;28;20044;-72
2023/11/07 05:04:33;;;;;;;10.70;3.60;;;8.30;99.90;;;;;;5028491;28;20056;-72
2023/11/07 05:07:00;;;;;;;6.55;3.00;;;8.40;99.90;;;;;;4995084;28;20473;-72
2023/11/07 05:09:27;;;;;;;8.43;3.05;;;8.40;99.90;;;;;;4997201;28;20033;-72
2023/11/07 05:11:54;;;;;;;8.10;3.42;;;8.50;99.90;;;;;;4998748;28;20037;-72
2023/11/07 05:14:21;;;;;;;10.20;3.78;;;8.50;99.90;;;;;;4995581;28;20041;-72
2023/11/07 05:16:47;;;;;;;8.38;4.15;;;8.60;99.90;;;;;;4995755;28;20030;-71
2023/11/07 05:19:14;;;;;;;7.00;3.08;;;8.50;99.90;;;;;;4979575;28;20419;-71
2023/11/07 05:21:41;;;;;;;6.82;3.78;;;8.50;99.90;;;;;;4998848;28;20037;-72
2023/11/07 05:24:07;;;;;;;9.27;3.58;;;8.50;99.90;;;;;;4995940;28;20034;-72
2023/11/07 05:26:34;;;;;;;9.50;4.57;;;8.50;99.90;;;;;;4995485;28;20041;-73
2023/11/07 05:29:00;;;;;;;10.50;4.30;;;8.50;99.90;;;;;;4996596;28;20393;-72
2023/11/07 05:31:26;;;;;;;11.27;4.63;;;8.50;99.90;;;;;;4995700;28;20096;-73
2023/11/07 05:33:53;;;;;;;10.52;4.47;;;8.60;99.90;;;;;;4979326;28;20029;-72
2023/11/07 05:36:20;;;;;;;12.05;5.05;;;8.60;99.90;;;;;;4979379;28;20156;-72
2023/11/07 05:38:47;;;;;;;9.13;4.47;;;8.70;99.90;;;;;;4977328;28;20118;-71
2023/11/07 05:41:14;;;;;;;8.98;4.50;;;8.70;99.90;;;;;;4996542;28;20041;-73
2023/11/07 05:43:40;;;;;;;10.40;5.78;;;8.70;99.90;;;;;;4962376;28;20033;-72
2023/11/07 05:46:07;;;;;;;11.77;5.57;;;8.70;99.90;;;;;;4978635;28;20037;-73
2023/11/07 05:48:36;;;;;;;12.35;5.55;;;8.80;99.90;;;;;;5005288;28;20034;-72
2023/11/07 05:51:03;;;;;;;11.60;5.88;;;8.80;99.90;;;;;;4996482;28;20491;-72
2023/11/07 05:53:29;;;;;;;10.32;5.10;;;8.80;99.90;;;;;;4995477;28;20033;-71
2023/11/07 05:55:56;;;;;;;11.90;6.15;;;8.80;99.90;;;;;;4961983;28;20649;-72
2023/11/07 05:58:22;;;;;;;13.05;5.78;;;8.80;99.90;;;;;;4996077;28;20508;-72
2023/11/07 06:00:49;;;;;;;12.70;6.53;;;8.80;99.90;;;;;;4994918;28;20029;-72
2023/11/07 06:03:15;;;;;;;11.98;6.32;;;8.80;99.90;;;;;;4994571;28;20048;-72
2023/11/07 06:05:42;;;;;;;12.63;5.97;;;8.80;99.90;;;;;;4995259;28;20064;-72
2023/11/07 06:08:09;;;;;;;11.98;6.85;;;8.70;99.90;;;;;;4994909;28;20041;-73
2023/11/07 06:10:36;;;;;;;10.32;5.50;;;8.70;99.90;;;;;;4996198;28;20052;-72
2023/11/07 06:13:05;;;;;;;10.63;5.05;;;8.80;99.90;;;;;;4996298;28;20032;-71
2023/11/07 06:15:32;;;;;;;13.23;7.03;;;8.80;99.90;;;;;;4978220;28;20033;-73
2023/11/07 06:17:59;;;;;;;12.95;6.63;;;8.80;99.90;;;;;;4995459;28;20042;-71
2023/11/07 06:20:25;;;;;;;11.05;7.05;;;8.80;99.90;;;;;;4979436;28;20038;-72
2023/11/07 06:22:52;;;;;;;9.95;6.53;;;8.80;99.90;;;;;;4996046;28;20041;-72
2023/11/07 06:25:19;;;;;;;12.00;6.65;;;8.80;99.90;;;;;;4994953;28;20033;-73
2023/11/07 06:27:47;;;;;;;10.50;5.95;;;8.80;99.90;;;;;;4995077;28;20045;-71
2023/11/07 06:30:16;;;;;;;12.13;5.75;;;8.80;99.90;;;;;;4961280;28;20033;-73
2023/11/07 06:32:42;;;;;;;14.70;6.80;;;8.80;99.90;;;;;;4997570;28;20041;-72
2023/11/07 06:35:09;;;;;;;10.57;6.28;;;8.80;99.90;;;;;;4993883;28;20034;-73
2023/11/07 06:37:35;;;;;;;12.00;6.57;;;8.80;99.90;;;;;;4978211;28;20034;-73
2023/11/07 06:40:13;;;;;;;11.10;6.72;;;8.80;99.90;;;;;;4978498;28;20045;-72
2023/11/07 06:42:41;;;;;;;10.93;7.25;;;8.80;99.90;;;;;;4996299;28;20038;-72
2023/11/07 06:45:12;;;;;;;13.02;6.53;;;8.80;99.90;;;;;;4979504;28;20026;-73
2023/11/07 06:47:42;;;;;;;10.23;6.30;;;8.80;99.90;;;;;;5027476;28;20527;-72
2023/11/07 06:50:10;;;;;;;9.20;5.10;;;8.90;99.90;;;;;;4995061;28;20030;-72
2023/11/07 06:52:40;;;;;;;7.95;5.82;;;8.90;99.90;;;;;;4978345;28;20073;-72
2023/11/07 06:55:11;;;;;;;9.63;4.63;;;8.90;99.90;;;;;;4961749;28;20044;-71
2023/11/07 06:57:38;;;;;;;8.85;5.53;;;8.90;99.90;;;;;;5009160;28;20042;-71
2023/11/07 07:00:05;;;;;;;7.82;4.88;;;8.90;99.90;;;;;;4996036;28;20042;-72
2023/11/07 07:02:33;;;;;;;10.55;5.03;;;8.90;99.90;;;;;;4993909;28;20863;-70
2023/11/07 07:04:59;;;;;;;9.57;6.47;;;8.90;99.90;;;;;;4978426;28;20042;-71
2023/11/07 07:07:26;;;;;;;10.13;6.82;;;9.00;99.90;;;;;;4977876;28;20100;-72
2023/11/07 07:09:52;;;;;;;12.00;7.32;;;8.90;99.90;;;;;;4993558;28;20033;-71
2023/11/07 07:12:20;;;;;;;11.63;7.80;;;8.90;99.90;;;;;;4993752;28;20481;-72
2023/11/07 07:14:48;;;;;;;12.48;7.28;;;8.90;99.90;;;;;;4993127;28;20038;-71
2023/11/07 07:17:19;;;;;;;12.20;7.97;;;9.00;99.90;;;;;;4993824;28;20057;-71
2023/11/07 07:19:48;;;;;;;10.70;6.57;;;9.00;99.90;;;;;;4977067;28;20045;-71
2023/11/07 07:22:15;;;;;;;13.27;7.28;;;9.00;99.90;;;;;;5006421;28;20321;-72
2023/11/07 07:24:42;;;;;;;9.57;5.60;;;9.00;99.90;;;;;;5006401;28;20034;-72
2023/11/07 07:27:11;;;;;;;7.80;6.22;;;9.00;99.90;;;;;;4993489;28;20495;-73
2023/11/07 07:29:37;;;;;;;12.02;7.13;;;9.10;99.90;;;;;;4976157;28;20026;-72
2023/11/07 07:32:04;;;;;;;9.32;5.53;;;9.10;99.90;;;;;;5026755;28;20432;-72
2023/11/07 07:34:32;;;;;;;9.70;6.35;;;9.10;99.90;;;;;;4995537;28;20507;-72
2023/11/07 07:36:58;;;;;;;13.85;8.25;;;9.10;99.90;;;;;;4994396;28;20045;-72
2023/11/07 07:39:32;;;;;;;8.63;6.72;;;9.10;99.90;;;;;;4998093;28;20412;-74
2023/11/07 07:42:00;;;;;;;10.45;6.68;;;9.10;99.90;;;;;;5014114;28;20493;-72
2023/11/07 07:44:27;;;;;;;10.93;6.70;;;9.20;99.90;;;;;;5013002;28;20046;-73
2023/11/07 07:46:54;;;;;;;11.35;6.60;;;9.20;99.90;;;;;;5011664;28;20030;-72
2023/11/07 07:49:23;;;;;;;11.57;7.65;;;9.20;99.90;;;;;;4998024;28;20030;-73
2023/11/07 07:51:52;;;;;;;16.90;10.73;;;9.10;99.90;;;;;;4997050;28;22223;-72
2023/11/07 07:54:24;;;;;;;13.20;8.57;;;9.10;99.90;;;;;;4996477;28;20044;-73
2023/11/07 07:56:53;;;;;;;12.18;6.70;;;9.20;99.90;;;;;;4997077;28;20040;-72
2023/11/07 07:59:25;;;;;;;10.70;6.45;;;9.20;99.90;;;;;;4994463;28;20030;-72
2023/11/07 08:01:53;;;;;;;8.60;6.57;;;9.20;99.90;;;;;;4996623;28;20034;-72
2023/11/07 08:04:21;;;;;;;9.82;6.45;;;9.30;99.90;;;;;;4963951;28;20397;-72
2023/11/07 08:06:48;;;;;;;12.43;6.10;;;9.30;99.90;;;;;;4998475;28;20033;-72
2023/11/07 08:09:18;;;;;;;12.88;6.90;;;9.40;99.90;;;;;;4997928;28;20384;-72
2023/11/07 08:11:48;;;;;;;8.93;6.15;;;9.50;99.90;;;;;;4997730;28;20048;-72
2023/11/07 08:14:14;;;;;;;11.65;7.25;;;9.50;99.90;;;;;;4996441;28;20033;-71
2023/11/07 08:16:41;;;;;;;10.52;7.03;;;9.60;99.90;;;;;;4981747;28;20037;-71
2023/11/07 08:19:12;;;;;;;12.50;7.05;;;9.60;99.90;;;;;;4996461;28;20059;-71
2023/11/07 08:21:39;;;;;;;8.80;5.75;;;9.60;99.90;;;;;;4979910;28;20584;-72
2023/11/07 08:24:06;;;;;;;7.13;4.75;;;9.70;99.90;;;;;;5012889;28;20037;-72
2023/11/07 08:26:35;;;;;;;7.93;5.18;;;9.70;99.90;;;;;;4965098;28;20037;-71
2023/11/07 08:29:06;;;;;;;7.45;6.07;;;9.70;99.90;;;;;;5012730;28;20034;-71
2023/11/07 08:31:36;;;;;;;9.32;5.90;;;9.70;99.90;;;;;;4981026;28;20033;-71
2023/11/07 08:34:09;;;;;;;9.50;6.75;;;9.70;99.90;;;;;;4981182;28;20034;-71
2023/11/07 08:36:38;;;;;;;8.85;6.18;;;9.70;99.90;;;;;;4964995;28;20129;-71
2023/11/07 08:39:05;;;;;;;6.93;5.68;;;9.70;99.90;;;;;;5011306;28;20048;-71
2023/11/07 08:41:32;;;;;;;8.30;5.15;;;9.80;99.90;;;;;;4996302;28;20030;-71
2023/11/07 08:43:58;;;;;;;9.90;5.72;;;9.70;99.90;;;;;;4980610;28;20040;-72
2023/11/07 08:46:25;;;;;;;9.00;5.68;;;9.70;99.90;;;;;;4981376;28;20018;-72
2023/11/07 08:48:53;;;;;;;10.27;5.63;;;9.70;99.90;;;;;;4996036;28;20257;-71
2023/11/07 08:51:19;;;;;;;9.63;5.25;;;9.80;99.90;;;;;;5026720;28;20048;-72
2023/11/07 08:53:46;;;;;;;9.05;4.63;;;9.80;99.90;;;;;;4980330;28;20029;-72
2023/11/07 08:56:12;;;;;;;7.35;5.57;;;9.90;99.90;;;;;;4996255;28;20033;-71
2023/11/07 08:58:39;;;;;;;5.60;4.88;;;9.90;99.90;;;;;;4978889;28;20286;-71
2023/11/07 09:01:05;;;;;;;9.88;5.10;;;9.90;99.90;;;;;;4996056;28;20626;-71
2023/11/07 09:03:33;;;;;;;8.32;4.68;;;10.00;99.90;;;;;;4997828;28;20037;-71
2023/11/07 09:06:00;;;;;;;8.50;4.50;;;10.00;99.90;;;;;;4995197;28;20045;-71
2023/11/07 09:08:27;;;;;;;8.35;4.35;;;10.10;99.90;;;;;;4996347;28;20061;-71
2023/11/07 09:10:54;;;;;;;6.13;3.85;;;10.20;99.90;;;;;;4964241;28;20022;-72
2023/11/07 09:13:23;;;;;;;6.95;4.28;;;10.20;99.90;;;;;;4996447;28;20022;-71
2023/11/07 09:15:49;;;;;;;8.43;4.20;;;10.20;99.90;;;;;;5013549;28;20042;-72
2023/11/07 09:18:15;;;;;;;7.25;3.47;;;10.20;99.90;;;;;;4979026;28;20535;-71
2023/11/07 09:20:42;;;;;;;7.20;4.30;;;10.20;99.90;;;;;;5012780;28;20041;-71
2023/11/07 09:23:09;;;;;;;14.40;9.60;;;10.20;99.90;;;;;;5008282;28;20393;-71
2023/11/07 09:25:35;;;;;;;12.80;6.90;;;10.20;99.90;;;;;;4995781;28;20396;-72
2023/11/07 09:28:01;;;;;;;8.82;5.22;;;10.20;99.90;;;;;;4979822;28;20021;-71
2023/11/07 09:30:27;;;;;;;7.05;3.50;;;10.30;99.90;;;;;;4980280;28;20022;-72
2023/11/07 09:32:56;;;;;;;4.32;2.90;;;10.30;99.90;;;;;;4978870;28;20026;-71
2023/11/07 09:35:25;;;;;;;8.20;3.42;;;10.30;99.90;;;;;;4995108;28;20036;-72
2023/11/07 09:37:52;;;;;;;8.52;3.97;;;10.30;99.90;;;;;;4979048;28;20033;-72
2023/11/07 09:40:19;;;;;;;3.97;2.72;;;10.30;99.90;;;;;;4979197;28;20026;-72
2023/11/07 09:42:48;;;;;;;8.45;2.92;;;10.20;99.90;;;;;;5011339;28;20461;-72
2023/11/07 09:45:16;;;;;;;3.95;2.85;;;10.20;99.90;;;;;;5011415;28;20052;-72
2023/11/07 09:47:47;;;;;;;3.85;2.88;;;10.20;99.90;;;;;;4995705;28;20404;-72
2023/11/07 09:50:23;;;;;;;3.70;2.70;;;10.30;99.90;;;;;;4978957;28;20780;-72
2023/11/07 09:52:51;;;;;;;6.95;2.72;;;10.30;99.90;;;;;;5009427;28;20037;-72
2023/11/07 09:55:17;;;;;;;5.57;3.30;;;10.30;99.90;;;;;;4991564;28;20041;-73
2023/11/07 09:58:07;;;;;;;4.80;2.47;;;10.30;99.90;;;;;;4995346;28;20477;-72
2023/11/07 10:00:35;;;;;;;4.82;2.20;;;10.30;99.90;;;;;;4995582;28;20346;-72
2023/11/07 10:03:02;;;;;;;5.20;2.70;;;10.40;99.90;;;;;;4979570;28;20030;-72
2023/11/07 10:05:30;;;;;;;4.78;2.95;;;10.40;99.90;;;;;;5026307;28;20048;-71
2023/11/07 10:07:59;;;;;;;3.53;2.50;;;10.40;99.90;;;;;;4978626;28;20062;-72
2023/11/07 10:10:26;;;;;;;4.28;2.78;;;10.50;99.90;;;;;;5026712;28;20033;-72
2023/11/07 10:12:52;;;;;;;7.93;2.47;;;10.50;99.90;;;;;;4994777;28;20037;-72
2023/11/07 10:15:20;;;;;;;4.65;2.50;;;10.60;99.90;;;;;;4996046;28;20037;-72
2023/11/07 10:18:10;;;;;;;4.63;2.60;;;10.60;99.90;;;;;;4995080;28;20488;-72
2023/11/07 10:20:49;;;;;;;7.10;2.58;;;10.70;99.90;;;;;;4997096;28;20038;-72
2023/11/07 10:23:17;;;;;;;6.40;2.85;;;10.80;99.90;;;;;;4996333;28;20026;-72
2023/11/07 10:25:49;;;;;;;4.63;2.25;;;10.90;99.90;;;;;;4974338;28;20038;-72
2023/11/07 10:28:18;;;;;;;3.70;2.65;;;11.00;99.90;;;;;;4997526;28;20042;-72
2023/11/07 10:30:45;;;;;;;5.88;2.97;;;11.10;99.90;;;;;;4994493;28;20025;-73
2023/11/07 10:33:32;;;;;;;3.88;2.45;;;11.20;99.90;;;;;;4993658;28;20014;-72
2023/11/07 10:36:01;;;;;;;4.38;1.95;;;11.40;99.90;;;;;;5009334;28;20038;-73
2023/11/07 10:38:29;;;;;;;5.68;1.73;;;11.50;99.90;;;;;;4995129;28;20029;-72
2023/11/07 10:40:55;;;;;;;5.20;2.15;;;11.60;99.90;;;;;;4994471;28;20030;-72
2023/11/07 10:43:35;;;;;;;4.38;2.50;;;11.60;99.90;;;;;;5020520;28;20468;-72
2023/11/07 10:46:03;;;;;;;3.85;1.98;;;11.60;99.90;;;;;;5010766;28;20381;-73
2023/11/07 10:48:40;;;;;;;4.75;1.92;;;11.60;99.90;;;;;;5027296;28;20026;-71
2023/11/07 10:51:12;;;;;;;3.97;2.08;;;11.60;99.90;;;;;;4994855;28;20465;-72
2023/11/07 10:53:41;;;;;;;4.43;1.67;;;11.50;99.90;;;;;;4995364;28;20029;-72
2023/11/07 10:56:18;;;;;;;6.75;2.35;;;11.50;99.90;;;;;;4978826;28;20312;-72
2023/11/07 10:58:52;;;;;;;6.72;1.92;;;11.50;99.90;;;;;;5011700;28;20037;-72
2023/11/07 11:01:22;;;;;;;3.03;1.70;;;11.70;99.90;;;;;;4995784;28;20049;-71
2023/11/07 11:03:50;;;;;;;3.53;1.80;;;11.90;99.90;;;;;;4994432;28;20034;-72
2023/11/07 11:06:23;;;;;;;2.90;1.35;;;12.10;99.90;;;;;;4994832;28;20034;-73
2023/11/07 11:08:53;;;;;;;3.83;1.40;;;12.30;99.90;;;;;;4976142;28;20049;-73
2023/11/07 11:11:23;;;;;;;4.47;1.20;;;12.50;99.90;;;;;;4995981;28;20029;-74
2023/11/07 11:13:51;;;;;;;7.00;3.05;;;12.70;99.90;;;;;;5030803;28;20049;-72
2023/11/07 11:16:19;;;;;;;6.97;2.40;;;12.70;99.90;;;;;;4998545;28;20138;-72
2023/11/07 11:18:57;;;;;;;4.10;1.67;;;12.80;99.90;;;;;;4981943;28;20042;-72
2023/11/07 11:21:47;;;;;;;4.55;1.88;;;12.80;99.90;;;;;;5027637;28;20034;-72
2023/11/07 11:24:21;;;;;;;5.65;1.58;;;12.70;99.90;;;;;;4998333;28;20041;-72
2023/11/07 11:26:55;;;;;;;4.55;1.30;;;12.70;99.90;;;;;;5013020;28;20049;-72
2023/11/07 11:29:24;;;;;;;4.50;1.27;;;12.80;99.90;;;;;;4997510;28;20029;-71
2023/11/07 11:31:51;;;;;;;3.65;1.08;;;12.80;99.90;;;;;;4997475;28;20022;-72
2023/11/07 11:34:29;;;;;;;3.58;1.08;;;12.90;99.90;;;;;;4981107;28;20034;-72
2023/11/07 11:36:56;;;;;;;6.60;1.92;;;12.90;99.90;;;;;;5024397;28;20033;-72
2023/11/07 11:39:29;;;;;;;4.18;1.20;;;12.80;99.90;;;;;;4998612;28;20037;-73
2023/11/07 11:42:09;;;;;;;6.05;0.90;;;12.70;99.90;;;;;;4997018;28;20030;-72
2023/11/07 11:44:36;;;;;;;3.65;1.02;;;12.70;99.90;;;;;;5030326;28;20481;-72
2023/11/07 11:47:03;;;;;;;4.10;1.00;;;12.70;99.90;;;;;;4981995;28;20040;-72
2023/11/07 11:49:29;;;;;;;2.90;0.85;;;12.60;99.90;;;;;;4998613;28;20045;-72
2023/11/07 11:51:57;;;;;;;5.35;1.13;;;12.70;99.90;;;;;;4982157;28;20034;-72
2023/11/07 11:54:26;;;;;;;4.45;0.82;;;12.70;99.90;;;;;;4998636;28;20037;-72
2023/11/07 11:56:56;;;;;;;4.68;1.00;;;12.70;99.90;;;;;;5029369;28;20053;-72
2023/11/07 11:59:30;;;;;;;3.95;0.70;;;12.70;99.90;;;;;;4998369;28;21169;-73
2023/11/07 12:01:59;;;;;;;3.55;1.08;;;12.70;99.90;;;;;;4980567;28;20030;-72
2023/11/07 12:04:29;;;;;;;4.80;1.23;;;12.70;99.90;;;;;;4965214;28;20053;-72
2023/11/07 12:07:14;;;;;;;6.45;1.88;;;12.70;99.90;;;;;;4996813;28;20037;-73
2023/11/07 12:09:47;;;;;;;3.13;1.05;;;12.70;99.90;;;;;;5029774;28;20033;-73
2023/11/07 12:12:15;;;;;;;2.50;0.82;;;12.60;99.90;;;;;;5013577;28;20041;-72
2023/11/07 12:14:58;;;;;;;5.03;0.93;;;12.60;99.90;;;;;;4998539;28;20034;-72
2023/11/07 12:17:47;;;;;;;3.35;1.00;;;12.50;99.90;;;;;;4997760;28;20053;-72
2023/11/07 12:20:16;;;;;;;4.63;1.08;;;12.50;99.90;;;;;;5007540;28;20036;-73
2023/11/07 12:22:46;;;;;;;2.88;0.75;;;12.50;99.90;;;;;;5029413;28;20046;-72
2023/11/07 12:25:18;;;;;;;4.10;1.48;;;12.60;99.90;;;;;;4996163;28;20038;-73
2023/11/07 12:28:05;;;;;;;5.63;1.80;;;12.60;99.90;;;;;;4997459;28;20038;-72
2023/11/07 12:30:35;;;;;;;3.90;1.13;;;12.70;99.90;;;;;;4981490;28;20049;-72
2023/11/07 12:33:04;;;;;;;7.20;2.08;;;12.70;99.90;;;;;;4995908;28;21065;-73
2023/11/07 12:35:31;;;;;;;3.58;1.00;;;12.80;99.90;;;;;;4996444;28;20041;-73
2023/11/07 12:38:06;;;;;;;3.90;1.45;;;12.90;99.90;;;;;;4995794;28;20505;-72
2023/11/07 12:40:35;;;;;;;5.45;0.68;;;12.90;99.90;;;;;;5029336;28;20026;-72
2023/11/07 12:43:03;;;;;;;3.72;0.90;;;12.80;99.90;;;;;;4997352;28;20511;-73
2023/11/07 12:45:31;;;;;;;3.05;0.65;;;12.70;99.90;;;;;;4996432;28;20042;-72
2023/11/07 12:48:06;;;;;;;2.42;0.50;;;12.60;99.90;;;;;;5012068;28;20037;-72
2023/11/07 12:50:42;;;;;;;5.03;0.80;;;12.50;99.90;;;;;;4999007;28;20053;-72
2023/11/07 12:53:09;;;;;;;5.22;0.73;;;12.50;99.90;;;;;;4996294;28;20022;-73
2023/11/07 12:55:37;;;;;;;4.80;1.85;;;12.50;99.90;;;;;;4981183;28;20030;-71
2023/11/07 12:58:06;;;;;;;3.10;1.25;;;12.40;99.90;;;;;;4996415;28;20421;-73